createdAt,value
2023-04-01T00:03:30.210Z,2
2023-04-01T00:14:54.340Z,2.2
2023-04-01T00:23:11.650Z,3.5
2023-04-01T00:25:15.232Z,3.7
2023-04-01T00:27:18.820Z,4.2
2023-04-01T00:29:22.389Z,1.9
2023-04-01T00:31:26.009Z,3.7
2023-04-01T00:33:33.477Z,5.4
2023-04-01T00:35:36.152Z,10.5
2023-04-01T00:37:39.727Z,2.3
2023-04-01T00:39:43.334Z,3.1
2023-04-01T00:41:47.370Z,4.2
2023-04-01T00:43:50.446Z,3.3
2023-04-01T00:45:54.040Z,4.6
2023-04-01T00:48:00.748Z,3.7
2023-04-01T00:50:04.229Z,5.1
2023-04-01T01:02:28.775Z,6.2
2023-04-01T01:06:35.833Z,8.5
2023-04-01T01:09:00.322Z,5.4
2023-04-01T01:11:03.748Z,6.5
2023-04-01T01:15:49.032Z,12.9
2023-04-01T01:17:17.556Z,6.9
2023-04-01T01:19:23.181Z,7.3
2023-04-01T01:21:24.682Z,9
2023-04-01T01:25:32.227Z,7.9
2023-04-01T01:27:35.413Z,11.3
2023-04-01T01:29:42.042Z,11.7
2023-04-01T01:40:34.626Z,10.7
2023-04-01T01:42:03.455Z,8.8
2023-04-01T01:48:36.896Z,11.4
2023-04-01T01:50:20.876Z,8.2
2023-04-01T01:54:27.997Z,10
2023-04-01T01:56:31.601Z,8.7
2023-04-01T01:58:38.213Z,12.2
2023-04-01T02:00:41.799Z,9.1
2023-04-01T02:02:45.401Z,11.3
2023-04-01T02:18:16.701Z,17
2023-04-01T02:20:20.262Z,19.1
2023-04-01T02:26:34.007Z,27.6
2023-04-01T02:28:37.674Z,26.7
2023-04-01T02:41:02.046Z,24.3
2023-04-01T02:43:05.753Z,30.7
2023-04-01T02:45:09.219Z,19
2023-04-01T02:47:12.754Z,21.1
2023-04-01T02:51:19.876Z,14.2
2023-04-01T02:53:23.459Z,13.7
2023-04-01T02:55:30.174Z,21.1
2023-04-01T02:57:33.824Z,11.4
2023-04-01T03:00:40.607Z,17.3
2023-04-01T03:02:44.289Z,21.1
2023-04-01T03:04:47.704Z,16.6
2023-04-01T03:06:51.287Z,18.7
2023-04-01T03:08:57.942Z,20.4
2023-04-01T03:11:01.556Z,26.1
2023-04-01T03:33:43.774Z,12.8
2023-04-01T03:39:57.579Z,18.8
2023-04-01T03:42:01.117Z,11.5
2023-04-01T03:44:04.715Z,10.9
2023-04-01T03:46:08.273Z,14.2
2023-04-01T03:48:18.973Z,10.9
2023-04-01T03:50:15.407Z,14.6
2023-04-01T03:52:22.014Z,10.3
2023-04-01T03:54:25.550Z,12.7
2023-04-01T03:56:29.150Z,10.4
2023-04-01T03:57:32.756Z,13.8
2023-04-01T03:59:36.041Z,12.2
2023-04-01T04:07:53.391Z,11.7
2023-04-01T04:09:56.945Z,11
2023-04-01T04:14:04.074Z,8.8
2023-04-01T04:30:35.661Z,11.9
2023-04-01T04:32:39.307Z,16.2
2023-04-01T04:34:45.939Z,11.8
2023-04-01T04:36:49.486Z,10.6
2023-04-01T04:38:53.076Z,12.2
2023-04-01T04:40:56.631Z,11.9
2023-04-01T04:43:07.458Z,13.9
2023-04-01T04:45:11.549Z,15.6
2023-04-01T04:53:21.649Z,13.2
2023-04-01T05:01:59.148Z,14
2023-04-01T05:04:02.680Z,10.6
2023-04-01T05:08:09.829Z,12.1
2023-04-01T05:10:15.711Z,15.1
2023-04-01T05:16:27.220Z,11.7
2023-04-01T05:18:30.858Z,11.2
2023-04-01T05:20:34.333Z,10.4
2023-04-01T05:22:39.486Z,10.4
2023-04-01T05:24:42.998Z,13.3
2023-04-01T05:26:46.567Z,12.4
2023-04-01T05:28:50.463Z,12.9
2023-04-01T05:30:56.809Z,14.3
2023-04-01T05:33:00.395Z,16.7
2023-04-01T05:35:03.925Z,12.8
2023-04-01T05:39:11.055Z,18.5
2023-04-01T05:41:14.628Z,10.2
2023-04-01T05:43:18.227Z,14.9
2023-04-01T05:45:24.804Z,15
2023-04-01T05:47:28.429Z,12.3
2023-04-01T05:49:31.992Z,14.8
2023-04-01T05:50:35.273Z,16.2
2023-04-01T05:52:38.879Z,19
2023-04-01T05:54:42.458Z,17
2023-04-01T05:56:47.630Z,14.2
2023-04-01T05:58:52.673Z,15
2023-04-01T06:01:08.501Z,18.8
2023-04-01T06:02:59.932Z,18.7
2023-04-01T06:05:03.407Z,22.1
2023-04-01T06:07:06.902Z,22.2
2023-04-01T06:09:10.550Z,17.2
2023-04-01T06:11:14.071Z,21.9
2023-04-01T06:13:20.716Z,20.2
2023-04-01T06:15:24.261Z,23
2023-04-01T06:17:27.880Z,24.4
2023-04-01T06:19:31.392Z,23.5
2023-04-01T06:21:34.958Z,22.1
2023-04-01T06:42:16.869Z,28.6
2023-04-01T06:46:24.167Z,29.5
2023-04-01T06:47:27.360Z,30.1
2023-04-01T06:55:44.724Z,31
2023-04-01T06:57:48.340Z,32
2023-04-01T06:59:51.877Z,27.8
2023-04-01T07:01:55.542Z,31.1
2023-04-01T07:03:59.041Z,28.5
2023-04-01T07:31:13.273Z,19.5
2023-04-01T07:37:02.317Z,16.6
2023-04-01T07:39:08.930Z,18.4
2023-04-01T07:41:12.547Z,14.6
2023-04-01T07:44:19.432Z,14.4
2023-04-01T07:46:23.056Z,16.5
2023-04-01T07:48:26.546Z,13.2
2023-04-01T07:50:31.407Z,17.5
2023-04-01T07:54:40.366Z,16.8
2023-04-01T08:00:51.041Z,16.1
2023-04-01T08:02:54.697Z,10.3
2023-04-01T08:09:08.366Z,9.9
2023-04-01T08:11:11.938Z,7
2023-04-01T08:13:15.500Z,12.7
2023-04-01T08:17:22.739Z,7.4
2023-04-01T08:19:32.320Z,6.2
2023-04-01T08:21:32.772Z,6.5
2023-04-01T08:23:36.365Z,8.2
2023-04-01T08:27:43.484Z,8.4
2023-04-01T08:31:50.643Z,6
2023-04-01T08:33:54.160Z,7.2
2023-04-01T08:40:07.919Z,8.2
2023-04-01T08:48:45.812Z,6.6
2023-04-01T08:50:49.369Z,8.9
2023-04-01T08:54:56.462Z,6.9
2023-04-01T08:57:00.018Z,6.9
2023-04-01T08:59:03.624Z,5.1
2023-04-01T09:01:07.061Z,6.1
2023-04-01T09:03:13.859Z,6.4
2023-04-01T09:07:20.774Z,5.2
2023-04-01T09:11:27.788Z,2.9
2023-04-01T09:13:31.318Z,3.2
2023-04-01T09:15:35.110Z,3.3
2023-04-01T09:17:41.486Z,2.7
2023-04-01T09:19:45.009Z,4.3
2023-04-01T09:21:48.441Z,3.8
2023-04-01T09:23:51.967Z,3.7
2023-04-01T09:25:55.474Z,3
2023-04-01T09:30:02.497Z,3
2023-04-01T09:32:09.108Z,3
2023-04-01T09:34:12.639Z,2.9
2023-04-01T09:36:16.151Z,2.4
2023-04-01T09:37:19.386Z,2.6
2023-04-01T09:39:23.178Z,3.5
2023-04-01T09:41:26.337Z,2.5
2023-04-01T09:43:29.830Z,2.8
2023-04-01T09:45:36.379Z,2.9
2023-04-01T09:47:39.954Z,4.5
2023-04-01T09:49:43.340Z,2.5
2023-04-01T09:51:46.794Z,3
2023-04-01T09:53:50.281Z,2.2
2023-04-01T10:02:07.316Z,1.7
2023-04-01T10:04:10.716Z,1.9
2023-04-01T10:08:17.687Z,1
2023-04-01T10:12:24.644Z,0.4
2023-04-01T10:14:31.214Z,0.4
2023-04-01T10:16:34.758Z,0.8
2023-04-01T10:18:38.246Z,1.5
2023-04-01T10:20:41.716Z,0.6
2023-04-01T10:24:48.723Z,0.8
2023-04-01T10:26:52.271Z,1.6
2023-04-01T10:28:58.784Z,1
2023-04-01T10:31:02.352Z,3.2
2023-04-01T10:34:09.123Z,1.6
2023-04-01T10:36:12.699Z,1.4
2023-04-01T10:38:16.370Z,2.5
2023-04-01T10:40:19.684Z,2.7
2023-04-01T10:56:54.116Z,4.3
2023-04-01T10:58:57.571Z,2.9
2023-04-01T11:01:01.137Z,2.4
2023-04-01T11:03:04.705Z,2
2023-04-01T11:07:11.750Z,2.1
2023-04-01T11:09:15.228Z,2.6
2023-04-01T11:11:21.800Z,1.5
2023-04-01T11:13:25.338Z,2.3
2023-04-01T11:15:28.840Z,3.8
2023-04-01T11:17:32.430Z,1.7
2023-04-01T11:19:37.473Z,2.6
2023-04-01T11:23:51.952Z,3.8
2023-04-01T11:25:51.084Z,5.3
2023-04-01T11:27:54.612Z,4.8
2023-04-01T11:30:00.542Z,4.3
2023-04-01T11:31:01.469Z,5.1
2023-04-01T11:35:08.503Z,5.9
2023-04-01T11:37:12.057Z,5.2
2023-04-01T11:39:18.673Z,3.9
2023-04-01T11:43:33.115Z,3.6
2023-04-01T11:45:29.230Z,4.4
2023-04-01T11:47:32.810Z,4.1
2023-04-01T11:49:36.260Z,4.2
2023-04-01T11:51:39.807Z,4.3
2023-04-01T11:53:46.395Z,4
2023-04-01T11:55:50.689Z,3.8
2023-04-01T11:57:53.382Z,2.7
2023-04-01T12:02:01.196Z,2.4
2023-04-01T12:04:04.840Z,2.3
2023-04-01T12:06:08.253Z,3.3
2023-04-01T12:08:14.853Z,2.5
2023-04-01T12:10:18.400Z,2.5
2023-04-01T12:12:21.883Z,2.1
2023-04-01T12:14:25.365Z,2.2
2023-04-01T12:16:29.009Z,3.6
2023-04-01T12:20:35.867Z,3.4
2023-04-01T12:22:42.496Z,2.5
2023-04-01T12:24:46.049Z,7.5
2023-04-01T12:26:49.907Z,4.8
2023-04-01T12:29:08.414Z,12.6
2023-04-01T12:31:11.915Z,6.8
2023-04-01T12:33:15.534Z,19.1
2023-04-01T12:39:29.133Z,3.3
2023-04-01T12:49:49.805Z,4.1
2023-04-01T12:53:08.373Z,3.6
2023-04-01T12:56:09.000Z,3.1
2023-04-01T12:58:03.813Z,3.3
2023-04-01T13:00:07.350Z,3.1
2023-04-01T13:02:10.856Z,3.5
2023-04-01T13:06:21.474Z,5.4
2023-04-01T13:08:24.495Z,3.7
2023-04-01T13:10:28.000Z,2.7
2023-04-01T13:14:34.958Z,2.1
2023-04-01T13:18:45.062Z,1.7
2023-04-01T13:22:52.078Z,2.3
2023-04-01T13:23:55.366Z,5.2
2023-04-01T13:26:10.882Z,2.7
2023-04-01T13:28:02.403Z,6.4
2023-04-01T13:30:05.998Z,3.7
2023-04-01T13:38:23.007Z,3
2023-04-01T13:42:30.014Z,3.2
2023-04-01T13:44:33.526Z,2.7
2023-04-01T13:56:57.687Z,3.9
2023-04-01T13:59:01.122Z,3.4
2023-04-01T14:01:07.768Z,5.4
2023-04-01T14:03:11.338Z,8
2023-04-01T14:05:14.710Z,4.7
2023-04-01T14:09:21.719Z,4.4
2023-04-01T14:15:36.278Z,5.2
2023-04-01T14:17:38.840Z,4.4
2023-04-01T14:19:42.286Z,4.1
2023-04-01T14:20:45.555Z,5
2023-04-01T14:22:49.092Z,6.6
2023-04-01T14:24:52.572Z,5.3
2023-04-01T14:26:56.084Z,5.1
2023-04-01T14:29:02.689Z,42.2
2023-04-01T14:36:08.209Z,5
2023-04-01T14:39:20.256Z,12
2023-04-01T14:43:32.731Z,7.5
2023-04-01T14:45:34.040Z,5.3
2023-04-01T14:47:37.386Z,4.7
2023-04-01T14:53:47.940Z,4.3
2023-04-01T14:55:51.505Z,5
2023-04-01T14:57:58.084Z,8.1
2023-04-01T15:00:01.603Z,5
2023-04-01T15:02:05.117Z,4.9
2023-04-01T15:12:25.848Z,4
2023-04-01T15:14:29.353Z,5
2023-04-01T15:17:36.232Z,5.4
2023-04-01T15:19:39.748Z,5.1
2023-04-01T15:21:43.280Z,4.7
2023-04-01T15:23:46.863Z,5.2
2023-04-01T15:25:53.431Z,5.6
2023-04-01T15:27:56.955Z,21.4
2023-04-01T15:30:00.526Z,6.9
2023-04-01T15:32:03.995Z,13
2023-04-01T15:34:07.625Z,5.4
2023-04-01T15:36:11.139Z,7.2
2023-04-01T15:38:14.578Z,4.2
2023-04-01T15:40:21.202Z,4.3
2023-04-01T15:42:24.755Z,4.2
2023-04-01T15:54:49.083Z,7.7
2023-04-01T15:56:52.633Z,5.2
2023-04-01T16:05:06.811Z,3.7
2023-04-01T16:07:10.331Z,5
2023-04-01T16:09:21.299Z,3.9
2023-04-01T16:11:20.506Z,4.7
2023-04-01T16:19:02.552Z,5.1
2023-04-01T16:28:12.337Z,5
2023-04-01T16:32:19.422Z,4.4
2023-04-01T16:36:39.555Z,5.5
2023-04-01T16:40:36.684Z,5.4
2023-04-01T16:44:43.780Z,6.1
2023-04-01T16:48:50.902Z,4.8
2023-04-01T16:50:57.517Z,6.2
2023-04-01T16:53:01.192Z,7.1
2023-04-01T16:55:04.669Z,4.7
2023-04-01T16:57:08.221Z,4.5
2023-04-01T16:59:24.789Z,5.7
2023-04-01T17:01:15.355Z,5.2
2023-04-01T17:03:18.892Z,5.1
2023-04-01T17:05:25.570Z,5.5
2023-04-01T17:07:47.620Z,5.1
2023-04-01T17:09:33.012Z,6
2023-04-01T17:10:36.380Z,6.7
2023-04-01T17:17:22.316Z,6.5
2023-04-01T17:23:01.975Z,6.3
2023-04-01T17:25:05.552Z,7.9
2023-04-01T17:27:09.280Z,13.8
2023-04-01T17:29:12.717Z,6.1
2023-04-01T17:31:16.298Z,5.4
2023-04-01T17:35:26.527Z,9
2023-04-01T17:37:30.100Z,5.1
2023-04-01T17:39:33.615Z,5.4
2023-04-01T17:41:37.178Z,5.2
2023-04-01T17:43:40.738Z,5.3
2023-04-01T17:45:44.342Z,5.8
2023-04-01T17:47:51.081Z,20.8
2023-04-01T17:49:54.569Z,6.4
2023-04-01T17:51:58.131Z,7.6
2023-04-01T17:54:01.710Z,10.2
2023-04-01T18:02:19.077Z,4.9
2023-04-01T18:07:29.529Z,5.1
2023-04-01T18:09:33.127Z,4.8
2023-04-01T18:11:36.686Z,6.7
2023-04-01T18:13:40.274Z,6.1
2023-04-01T18:15:46.902Z,4.3
2023-04-01T18:17:50.524Z,4.5
2023-04-01T18:32:18.567Z,6.8
2023-04-01T18:34:22.179Z,3.2
2023-04-01T18:42:44.434Z,3.4
2023-04-01T18:44:43.106Z,3.8
2023-04-01T18:46:46.670Z,3.4
2023-04-01T18:55:01.002Z,7.2
2023-04-01T19:01:14.828Z,4.9
2023-04-01T19:03:18.464Z,3.9
2023-04-01T19:04:21.663Z,7.9
2023-04-01T19:06:25.231Z,5.8
2023-04-01T19:08:28.801Z,4.9
2023-04-01T19:10:48.440Z,7.2
2023-04-01T19:12:39.037Z,8.3
2023-04-01T19:14:42.559Z,5.8
2023-04-01T19:16:46.155Z,6.3
2023-04-01T19:18:49.737Z,6.8
2023-04-01T19:20:53.293Z,6.5
2023-04-01T19:25:00.433Z,14
2023-04-01T19:27:07.053Z,8.2
2023-04-01T19:29:10.669Z,42.1
2023-04-01T19:31:14.281Z,8.5
2023-04-01T19:33:17.777Z,7.9
2023-04-01T19:35:21.358Z,9.3
2023-04-01T19:37:24.946Z,6.8
2023-04-01T19:39:28.514Z,8.5
2023-04-01T19:41:35.132Z,8.4
2023-04-01T19:43:38.705Z,9.3
2023-04-01T19:45:42.279Z,7.9
2023-04-01T19:51:53.019Z,7.8
2023-04-01T20:02:32.696Z,7.9
2023-04-01T20:10:49.930Z,10.8
2023-04-01T20:14:57.091Z,11.1
2023-04-01T20:21:07.833Z,8.9
2023-04-01T20:23:14.442Z,9
2023-04-01T20:25:18.054Z,9.2
2023-04-01T20:27:21.621Z,16.8
2023-04-01T20:29:25.180Z,16.2
2023-04-01T20:31:28.812Z,10.4
2023-04-01T20:35:36.268Z,8.8
2023-04-01T20:52:10.795Z,13.2
2023-04-01T20:54:14.388Z,8.6
2023-04-01T20:56:17.992Z,12.3
2023-04-01T20:57:38.122Z,8.8
2023-04-01T21:00:27.165Z,9.8
2023-04-01T21:01:28.562Z,9.6
2023-04-01T21:03:32.328Z,8.4
2023-04-01T21:07:42.346Z,11.7
2023-04-01T21:09:45.931Z,8.9
2023-04-01T21:11:49.528Z,10.7
2023-04-01T21:13:53.109Z,10.4
2023-04-01T21:18:00.314Z,9.4
2023-04-01T21:20:06.934Z,10.8
2023-04-01T21:26:17.729Z,11.3
2023-04-01T21:32:28.526Z,9.7
2023-04-01T21:34:35.187Z,10.7
2023-04-01T21:42:49.531Z,11.1
2023-04-01T21:44:53.134Z,9.5
2023-04-01T21:54:13.901Z,10.2
2023-04-01T21:56:17.506Z,11
2023-04-01T21:58:21.092Z,10.8
2023-04-01T22:00:24.702Z,15.2
2023-04-01T22:02:31.383Z,13.1
2023-04-01T22:04:34.986Z,11.6
2023-04-01T22:06:38.574Z,11.8
2023-04-01T22:08:42.193Z,12.1
2023-04-01T22:10:45.777Z,11.7
2023-04-01T22:12:49.355Z,10.3
2023-04-01T22:14:52.956Z,15.8
2023-04-01T22:16:59.630Z,12.8
2023-04-01T22:19:03.193Z,10.4
2023-04-01T22:21:06.787Z,12.1
2023-04-01T22:23:10.404Z,13.7
2023-04-01T22:25:13.997Z,11.7
2023-04-01T22:27:17.598Z,11.8
2023-04-01T22:29:21.185Z,12.4
2023-04-01T22:31:27.921Z,12.2
2023-04-01T22:33:33.149Z,13
2023-04-01T22:35:35.167Z,12.2
2023-04-01T22:37:38.627Z,12.1
2023-04-01T22:39:42.224Z,13.9
2023-04-01T22:41:45.843Z,12.2
2023-04-01T22:43:49.458Z,16.8
2023-04-01T22:45:56.131Z,13.2
2023-04-01T22:47:59.704Z,11.6
2023-04-01T22:50:03.258Z,11.8
2023-04-01T22:51:06.602Z,12.6
2023-04-01T22:53:10.220Z,12.1
2023-04-01T22:55:13.786Z,13.6
2023-04-01T22:57:17.387Z,11.6
2023-04-01T22:59:24.064Z,11.3
2023-04-01T23:03:31.247Z,11.4
2023-04-01T23:05:35.090Z,12.6
2023-04-01T23:07:38.437Z,15.5
2023-04-01T23:09:42.049Z,12
2023-04-01T23:15:57.506Z,13.3
2023-04-01T23:18:01.066Z,12.8
2023-04-01T23:20:04.655Z,14.3
2023-04-01T23:22:08.260Z,15.1
2023-04-01T23:32:29.349Z,15.8
2023-04-01T23:40:43.697Z,12.9
2023-04-01T23:44:54.002Z,16.5
2023-04-01T23:46:57.602Z,14.9
2023-04-01T23:49:22.086Z,19.1
2023-04-01T23:51:25.651Z,17.2
2023-04-01T23:59:43.159Z,17.1
